This is the latest recevied weather packets stored in our database for station/object WX5KDM. If no packets are shown the sender has not sent any weather packets the latest 10 day(s).
| Time | Temp. | Humidity | Pressure | Rain* | Wind** | Luminosity | Snow |
|---|---|---|---|---|---|---|---|
| 1787777124 | 23.89° C | 95% | 1015.4 hPa | 0 mm | - | - | - |
| 1787776822 | 23.89° C | 95% | 1015.4 hPa | 0 mm | - | - | - |
| 1787776521 | 23.89° C | 94% | 1015.6 hPa | 0 mm | - | - | - |
| 1787776221 | 23.89° C | 94% | 1015.7 hPa | 0 mm | - | - | - |
| 1787775920 | 23.89° C | 93% | 1016 hPa | 0 mm | - | - | - |
| 1787775615 | 23.89° C | 92% | 1015.8 hPa | 0 mm | - | - | - |
| 1787775313 | 24.44° C | 91% | 1016.2 hPa | 0 mm | - | - | - |
| 1787775008 | 24.44° C | 90% | 1016.2 hPa | 0 mm | - | - | - |
| 1787774707 | 25° C | 88% | 1016.3 hPa | 0 mm | - | - | - |
| 1787774407 | 25.56° C | 88% | 1015.8 hPa | 0 mm | - | - | - |
| 1787774101 | 26.11° C | 87% | 1015.8 hPa | 0 mm | - | - | - |
| 1787773799 | 28.33° C | 81% | 1015.6 hPa | 0 mm | - | - | - |
| 1787773494 | 30° C | 76% | 1015.5 hPa | 0 mm | - | - | - |
| 1787773191 | 30.56° C | 74% | 1015.3 hPa | 0 mm | - | - | - |
| 1787772890 | 30.56° C | 76% | 1014.9 hPa | 0 mm | - | - | - |
| 1787772585 | 30.56° C | 75% | 1014.7 hPa | 0 mm | - | - | - |
| 1787772280 | 30.56° C | 73% | 1014.8 hPa | 0 mm | - | - | - |
| 1787771977 | 31.11° C | 73% | 1014.8 hPa | 0 mm | - | - | - |
| 1787771667 | 31.67° C | 70% | 1014.8 hPa | 0 mm | - | - | - |
| 1787771367 | 32.22° C | 68% | 1015 hPa | 0 mm | - | - | - |
| 1787771067 | 32.78° C | 65% | 1015.3 hPa | 0 mm | - | - | - |
* Rain latest hour (hover to see other rain measurements)
** Current wind speed in m/s (hover to see current wind gust speed)